Brooker, Florida
Current Conditions -  °F | °C
As of 12:53 PM on Sunday 21 Dec 2014 (Local Time) from KGNV Reporting Station
Haze Haze  
Wind Chill: 62°   Ceiling: 400
Heat Index: 62°   Visibility: 3mi
Dew Point: 60°   Wind: 7mph
Humidity: 93%   Direction: 60°ENE
Pressure: 30.07"   Gusts: NA
Location:  29.89°N, 82.33°W
Report Text: KGNV 211753Z 06006KT 3SM BR OVC004 17/16 A3007 RMK AO2 RAE1656 SLP181 P0000 60002 T01670156 10167 20144 58014
Loading
Personal Weather Stations






























Interactive Weather Map New forecast layout! Learn more

10-Day Weather Forecast

Advertisements
Track Severe Weather on mobile